createdAt,value
2017-09-27T00:01:46.278Z,105.07
2017-09-27T00:03:47.243Z,114.03
2017-09-27T00:05:48.197Z,112.10
2017-09-27T00:07:49.170Z,111.73
2017-09-27T00:09:50.129Z,106.43
2017-09-27T00:11:51.078Z,123.23
2017-09-27T00:13:52.033Z,117.23
2017-09-27T00:15:52.997Z,120.03
2017-09-27T00:18:01.036Z,109.47
2017-09-27T00:20:01.980Z,124.17
2017-09-27T00:22:02.928Z,117.67
2017-09-27T00:24:03.887Z,117.63
2017-09-27T00:26:05.579Z,133.97
2017-09-27T00:28:06.528Z,115.63
2017-09-27T00:30:07.474Z,122.73
2017-09-27T00:32:08.422Z,128.27
2017-09-27T00:34:09.387Z,123.77
2017-09-27T00:36:10.344Z,126.57
2017-09-27T00:38:11.289Z,125.67
2017-09-27T00:40:12.246Z,132.63
2017-09-27T00:42:13.194Z,121.00
2017-09-27T00:44:14.160Z,131.30
2017-09-27T00:46:22.853Z,129.70
2017-09-27T00:48:23.804Z,121.50
2017-09-27T00:50:24.785Z,128.77
2017-09-27T00:52:26.480Z,117.90
2017-09-27T00:54:27.436Z,132.67
2017-09-27T00:56:28.427Z,124.67
2017-09-27T00:58:30.126Z,126.73
2017-09-27T01:00:31.080Z,122.70
2017-09-27T01:02:32.047Z,122.90
2017-09-27T01:04:33.005Z,127.00
2017-09-27T01:06:33.954Z,128.33
2017-09-27T01:08:34.905Z,132.63
2017-09-27T01:10:35.868Z,124.17
2017-09-27T01:12:37.580Z,120.30
2017-09-27T01:14:38.556Z,133.20
2017-09-27T01:16:39.508Z,127.63
2017-09-27T01:18:40.459Z,128.37
2017-09-27T01:20:41.423Z,131.50
2017-09-27T01:22:43.112Z,129.50
2017-09-27T01:24:44.083Z,140.13
2017-09-27T01:26:45.037Z,135.10
2017-09-27T01:28:45.989Z,123.13
2017-09-27T01:30:46.973Z,128.40
2017-09-27T01:32:48.685Z,140.67
2017-09-27T01:34:49.660Z,133.67
2017-09-27T01:36:50.617Z,138.60
2017-09-27T01:38:52.302Z,138.17
2017-09-27T01:40:53.273Z,134.67
2017-09-27T01:42:54.257Z,135.43
2017-09-27T01:44:55.217Z,138.37
2017-09-27T01:46:56.941Z,129.17
2017-09-27T01:48:57.890Z,140.37
2017-09-27T01:50:58.858Z,131.53
2017-09-27T01:52:59.825Z,132.83
2017-09-27T01:55:01.529Z,140.23
2017-09-27T01:57:02.509Z,146.63
2017-09-27T01:59:03.466Z,131.43
2017-09-27T02:01:04.432Z,135.73
2017-09-27T02:03:06.140Z,132.00
2017-09-27T02:05:07.097Z,128.73
2017-09-27T02:07:08.055Z,131.27
2017-09-27T02:09:09.009Z,134.50
2017-09-27T02:11:09.965Z,142.70
2017-09-27T02:13:11.665Z,141.90
2017-09-27T02:15:12.617Z,141.70
2017-09-27T02:17:13.570Z,142.93
2017-09-27T02:19:14.512Z,129.77
2017-09-27T02:21:15.456Z,146.80
2017-09-27T02:23:16.445Z,123.03
2017-09-27T02:25:17.395Z,123.00
2017-09-27T02:27:18.345Z,146.87
2017-09-27T02:29:19.299Z,140.90
2017-09-27T02:31:20.992Z,143.47
2017-09-27T02:33:21.945Z,127.07
2017-09-27T02:35:22.897Z,147.03
2017-09-27T02:37:23.929Z,144.23
2017-09-27T02:39:24.884Z,144.73
2017-09-27T02:41:25.825Z,154.73
2017-09-27T02:43:26.788Z,140.47
2017-09-27T02:45:27.744Z,150.87
2017-09-27T02:47:28.717Z,143.87
2017-09-27T02:49:29.665Z,143.20
2017-09-27T02:51:30.613Z,143.37
2017-09-27T02:53:32.317Z,147.20
2017-09-27T02:55:33.268Z,150.87
2017-09-27T02:57:34.228Z,132.77
2017-09-27T02:59:35.205Z,138.53
2017-09-27T03:01:36.157Z,146.53
2017-09-27T03:03:37.114Z,137.50
2017-09-27T03:05:38.807Z,145.33
2017-09-27T03:07:39.766Z,141.73
2017-09-27T03:09:40.724Z,133.70
2017-09-27T03:11:41.677Z,136.90
2017-09-27T03:13:42.637Z,145.60
2017-09-27T03:15:43.593Z,145.40
2017-09-27T03:17:44.558Z,153.23
2017-09-27T03:19:46.256Z,161.13
2017-09-27T03:21:47.206Z,136.80
2017-09-27T03:23:48.158Z,152.80
2017-09-27T03:25:49.105Z,154.17
2017-09-27T03:27:50.078Z,156.37
2017-09-27T03:29:51.039Z,149.03
2017-09-27T03:31:52.741Z,148.80
2017-09-27T03:33:53.696Z,158.07
2017-09-27T03:36:01.519Z,147.30
2017-09-27T03:38:03.250Z,155.67
2017-09-27T03:40:04.926Z,153.53
2017-09-27T03:42:05.877Z,156.73
2017-09-27T03:44:06.838Z,161.67
2017-09-27T03:46:07.792Z,151.30
2017-09-27T03:48:08.749Z,162.20
2017-09-27T03:50:09.713Z,156.03
2017-09-27T03:52:11.398Z,168.93
2017-09-27T03:54:12.358Z,153.27
2017-09-27T03:56:13.314Z,153.43
2017-09-27T03:58:14.265Z,173.53
2017-09-27T04:00:15.257Z,144.37
2017-09-27T04:02:16.940Z,173.63
2017-09-27T04:04:17.921Z,161.63
2017-09-27T04:06:18.877Z,156.57
2017-09-27T04:08:19.829Z,179.00
2017-09-27T04:10:20.788Z,160.47
2017-09-27T04:12:21.736Z,165.10
2017-09-27T04:14:22.688Z,142.40
2017-09-27T04:16:23.641Z,154.70
2017-09-27T04:18:25.353Z,161.87
2017-09-27T04:20:26.297Z,140.63
2017-09-27T04:22:27.298Z,147.27
2017-09-27T04:24:29.066Z,160.63
2017-09-27T04:26:30.765Z,146.47
2017-09-27T04:28:31.719Z,147.80
2017-09-27T04:30:32.673Z,147.83
2017-09-27T04:32:33.620Z,131.23
2017-09-27T04:34:34.573Z,138.17
2017-09-27T04:36:35.529Z,144.63
2017-09-27T04:38:36.481Z,145.70
2017-09-27T04:40:37.444Z,163.60
2017-09-27T04:42:39.137Z,150.33
2017-09-27T04:44:40.094Z,151.87
2017-09-27T04:46:41.053Z,160.30
2017-09-27T04:48:42.060Z,176.35
2017-09-27T04:50:43.022Z,157.37
2017-09-27T04:52:43.973Z,159.27
2017-09-27T04:54:44.924Z,156.43
2017-09-27T04:56:45.869Z,138.70
2017-09-27T04:58:46.814Z,142.77
2017-09-27T05:00:47.765Z,142.07
2017-09-27T05:02:48.725Z,132.03
2017-09-27T05:04:49.677Z,145.23
2017-09-27T05:06:50.624Z,138.30
2017-09-27T05:08:51.575Z,144.40
2017-09-27T05:10:52.536Z,139.40
2017-09-27T05:12:53.485Z,134.17
2017-09-27T05:14:54.429Z,153.50
2017-09-27T05:16:56.134Z,156.27
2017-09-27T05:18:57.084Z,156.40
2017-09-27T05:20:58.036Z,143.43
2017-09-27T05:22:58.998Z,153.73
2017-09-27T05:24:59.937Z,143.83
2017-09-27T05:27:00.893Z,149.90
2017-09-27T05:29:01.850Z,146.70
2017-09-27T05:31:02.792Z,139.23
2017-09-27T05:33:03.741Z,153.07
2017-09-27T05:35:04.685Z,159.00
2017-09-27T05:37:05.641Z,160.30
2017-09-27T05:39:06.593Z,158.57
2017-09-27T05:41:07.557Z,150.40
2017-09-27T05:43:09.257Z,160.50
2017-09-27T05:45:10.196Z,147.40
2017-09-27T05:47:11.160Z,155.83
2017-09-27T05:49:12.118Z,161.37
2017-09-27T05:51:13.095Z,142.93
2017-09-27T05:53:14.781Z,147.57
2017-09-27T05:55:15.741Z,144.00
2017-09-27T05:57:16.712Z,162.83
2017-09-27T05:59:17.676Z,157.37
2017-09-27T06:01:18.625Z,140.73
2017-09-27T06:03:19.576Z,155.00
2017-09-27T06:05:20.525Z,146.90
2017-09-27T06:07:21.484Z,139.07
2017-09-27T06:09:23.177Z,148.80
2017-09-27T06:11:24.130Z,137.60
2017-09-27T06:13:25.088Z,144.60
2017-09-27T06:15:26.782Z,139.50
2017-09-27T06:17:27.736Z,151.50
2017-09-27T06:19:28.769Z,154.60
2017-09-27T06:21:29.717Z,131.90
2017-09-27T06:23:30.677Z,153.70
2017-09-27T06:25:32.371Z,138.80
2017-09-27T06:27:33.337Z,128.67
2017-09-27T06:29:34.298Z,139.00
2017-09-27T06:31:35.244Z,137.87
2017-09-27T06:33:36.202Z,129.37
2017-09-27T06:35:37.160Z,132.93
2017-09-27T06:37:38.125Z,120.13
2017-09-27T06:39:39.839Z,136.63
2017-09-27T06:41:40.800Z,122.43
2017-09-27T06:43:41.756Z,134.68
2017-09-27T06:45:42.717Z,123.60
2017-09-27T06:47:43.670Z,144.17
2017-09-27T06:49:45.364Z,127.50
2017-09-27T06:51:46.336Z,123.43
2017-09-27T06:53:47.289Z,116.17
2017-09-27T06:55:48.245Z,147.93
2017-09-27T06:57:49.194Z,123.17
2017-09-27T06:59:50.148Z,121.30
2017-09-27T07:01:51.192Z,124.23
2017-09-27T07:03:52.153Z,135.57
2017-09-27T07:05:53.856Z,143.47
2017-09-27T07:07:54.796Z,137.07
2017-09-27T07:09:55.756Z,135.97
2017-09-27T07:11:56.701Z,139.63
2017-09-27T07:13:57.666Z,146.00
2017-09-27T07:15:58.668Z,123.03
2017-09-27T07:17:59.620Z,143.63
2017-09-27T07:20:00.573Z,132.13
2017-09-27T07:22:01.512Z,133.77
2017-09-27T07:24:02.469Z,145.73
2017-09-27T07:26:03.436Z,126.03
2017-09-27T07:28:04.467Z,144.37
2017-09-27T07:30:05.424Z,137.70
2017-09-27T07:32:06.390Z,135.43
2017-09-27T07:34:07.354Z,137.80
2017-09-27T07:36:08.306Z,124.50
2017-09-27T07:38:09.280Z,145.73
2017-09-27T07:40:10.241Z,142.70
2017-09-27T07:42:11.185Z,134.93
2017-09-27T07:44:12.142Z,138.77
2017-09-27T07:46:13.169Z,141.63
2017-09-27T07:48:14.119Z,136.37
2017-09-27T07:50:15.081Z,146.47
2017-09-27T07:52:16.024Z,141.27
2017-09-27T07:54:16.973Z,145.37
2017-09-27T07:56:18.670Z,168.97
2017-09-27T07:58:19.626Z,152.93
2017-09-27T08:00:21.321Z,175.63
2017-09-27T08:02:22.277Z,158.07
2017-09-27T08:04:23.224Z,152.87
2017-09-27T08:06:24.180Z,144.50
2017-09-27T08:08:25.129Z,160.27
2017-09-27T08:10:26.120Z,152.77
2017-09-27T08:12:27.820Z,134.93
2017-09-27T08:14:28.773Z,138.27
2017-09-27T08:16:29.754Z,152.37
2017-09-27T08:18:30.713Z,151.80
2017-09-27T08:20:31.669Z,130.87
2017-09-27T08:22:33.365Z,150.13
2017-09-27T08:24:34.370Z,144.33
2017-09-27T08:26:35.325Z,147.63
2017-09-27T08:28:37.016Z,148.57
2017-09-27T08:30:37.973Z,133.07
2017-09-27T08:32:38.920Z,144.33
2017-09-27T08:34:39.880Z,153.33
2017-09-27T08:36:40.837Z,150.20
2017-09-27T08:38:41.788Z,131.07
2017-09-27T08:40:42.745Z,141.97
2017-09-27T08:42:43.688Z,137.23
2017-09-27T08:44:44.644Z,147.73
2017-09-27T08:46:45.608Z,134.30
2017-09-27T08:48:47.314Z,142.03
2017-09-27T08:50:48.260Z,150.70
2017-09-27T08:52:49.206Z,139.70
2017-09-27T08:54:50.160Z,144.27
2017-09-27T08:56:51.116Z,144.77
2017-09-27T08:58:52.102Z,143.07
2017-09-27T09:00:53.065Z,150.60
2017-09-27T09:02:54.028Z,146.70
2017-09-27T09:04:54.990Z,166.97
2017-09-27T09:06:55.944Z,153.33
2017-09-27T09:08:56.905Z,146.93
2017-09-27T09:10:57.858Z,158.60
2017-09-27T09:12:58.806Z,154.93
2017-09-27T09:15:00.516Z,162.00
2017-09-27T09:17:01.477Z,168.30
2017-09-27T09:19:02.424Z,164.20
2017-09-27T09:21:03.438Z,169.33
2017-09-27T09:23:04.395Z,158.07
2017-09-27T09:25:05.364Z,155.97
2017-09-27T09:27:06.324Z,157.40
2017-09-27T09:29:07.276Z,169.70
2017-09-27T09:31:08.241Z,139.93
2017-09-27T09:33:09.948Z,147.67
2017-09-27T09:35:10.915Z,156.53
2017-09-27T09:37:11.982Z,154.67
2017-09-27T09:39:12.924Z,148.13
2017-09-27T09:41:13.884Z,168.17
2017-09-27T09:43:15.581Z,160.97
2017-09-27T09:45:16.532Z,160.17
2017-09-27T09:47:17.493Z,160.27
2017-09-27T09:49:18.453Z,161.63
2017-09-27T09:51:19.410Z,157.00
2017-09-27T09:53:20.383Z,151.20
2017-09-27T09:55:21.340Z,167.20
2017-09-27T09:57:23.048Z,161.73
2017-09-27T09:59:24.001Z,166.90
2017-09-27T10:01:25.689Z,164.47
2017-09-27T10:03:26.641Z,156.90
2017-09-27T10:05:28.333Z,153.20
2017-09-27T10:07:29.301Z,167.43
2017-09-27T10:09:30.248Z,170.83
2017-09-27T10:11:31.193Z,150.07
2017-09-27T10:13:32.141Z,144.10
2017-09-27T10:15:33.112Z,148.97
2017-09-27T10:17:34.052Z,144.57
2017-09-27T10:19:35.009Z,137.97
2017-09-27T10:21:35.949Z,149.93
2017-09-27T10:23:36.904Z,140.30
2017-09-27T10:25:37.865Z,145.00
2017-09-27T10:27:39.544Z,135.83
2017-09-27T10:29:40.492Z,146.37
2017-09-27T10:31:41.440Z,149.00
2017-09-27T10:33:42.390Z,153.77
2017-09-27T10:35:43.337Z,165.55
2017-09-27T10:37:44.277Z,155.13
2017-09-27T10:39:45.224Z,151.40
2017-09-27T10:41:46.172Z,143.70
2017-09-27T10:43:47.137Z,150.47
2017-09-27T10:45:48.085Z,144.70
2017-09-27T10:47:49.037Z,150.30
2017-09-27T10:49:50.004Z,145.33
2017-09-27T10:51:50.960Z,161.23
2017-09-27T10:53:51.917Z,163.37
2017-09-27T10:55:53.606Z,143.87
2017-09-27T10:57:54.557Z,162.60
2017-09-27T10:59:55.518Z,141.83
2017-09-27T11:01:56.481Z,162.33
2017-09-27T11:03:57.436Z,162.90
2017-09-27T11:05:58.397Z,165.03
2017-09-27T11:07:59.349Z,157.40
2017-09-27T11:10:01.058Z,159.03
2017-09-27T11:12:02.026Z,160.73
2017-09-27T11:14:02.977Z,162.33
2017-09-27T11:16:03.946Z,165.53
2017-09-27T11:18:04.902Z,158.40
2017-09-27T11:20:06.600Z,160.40
2017-09-27T11:22:07.556Z,162.93
2017-09-27T11:24:08.521Z,171.10
2017-09-27T11:26:09.474Z,164.77
2017-09-27T11:28:10.424Z,163.70
2017-09-27T11:30:11.397Z,167.37
2017-09-27T11:32:13.089Z,162.47
2017-09-27T11:34:14.041Z,164.23
2017-09-27T11:36:14.997Z,155.27
2017-09-27T11:38:15.950Z,154.53
2017-09-27T11:40:16.908Z,165.47
2017-09-27T11:42:17.857Z,153.90
2017-09-27T11:44:18.981Z,156.00
2017-09-27T11:46:19.925Z,154.83
2017-09-27T11:48:20.877Z,141.30
2017-09-27T11:50:21.834Z,153.43
2017-09-27T11:52:22.813Z,143.17
2017-09-27T11:54:23.765Z,132.33
2017-09-27T11:56:25.457Z,148.40
2017-09-27T11:58:26.393Z,140.90
2017-09-27T12:00:27.353Z,131.57
2017-09-27T12:02:28.309Z,141.63
2017-09-27T12:04:29.263Z,145.33
2017-09-27T12:06:30.213Z,148.03
2017-09-27T12:08:31.183Z,141.53
2017-09-27T12:10:32.133Z,129.53
2017-09-27T12:12:33.080Z,134.13
2017-09-27T12:14:34.045Z,139.57
2017-09-27T12:16:36.662Z,130.60
2017-09-27T12:18:38.309Z,138.30
2017-09-27T12:20:39.269Z,137.47
2017-09-27T12:22:40.233Z,128.90
2017-09-27T12:24:41.192Z,139.50
2017-09-27T12:26:42.145Z,125.30
2017-09-27T12:28:43.109Z,128.85
2017-09-27T12:30:44.062Z,129.80
2017-09-27T12:32:45.752Z,129.60
2017-09-27T12:34:46.709Z,139.80
2017-09-27T12:36:47.667Z,120.70
2017-09-27T12:38:48.628Z,122.73
2017-09-27T12:40:49.581Z,130.50
2017-09-27T12:42:50.544Z,127.53
2017-09-27T12:44:51.493Z,144.67
2017-09-27T12:46:52.452Z,147.23
2017-09-27T12:48:54.144Z,126.10
2017-09-27T12:50:55.105Z,129.07
2017-09-27T12:52:56.060Z,135.85
2017-09-27T12:54:57.036Z,123.53
2017-09-27T12:56:57.997Z,115.53
2017-09-27T12:58:59.705Z,125.27
2017-09-27T13:01:00.680Z,148.93
2017-09-27T13:03:01.633Z,130.63
2017-09-27T13:05:02.593Z,124.40
2017-09-27T13:07:04.299Z,133.90
2017-09-27T13:09:05.249Z,123.57
2017-09-27T13:11:06.234Z,128.03
2017-09-27T13:13:07.195Z,119.33
2017-09-27T13:15:08.892Z,124.60
2017-09-27T13:17:09.856Z,126.47
2017-09-27T13:19:10.808Z,111.83
2017-09-27T13:21:12.505Z,114.50
2017-09-27T13:23:13.469Z,124.13
2017-09-27T13:25:15.217Z,125.10
2017-09-27T13:27:16.174Z,119.93
2017-09-27T13:29:17.869Z,108.43
2017-09-27T13:31:18.837Z,119.50
2017-09-27T13:33:19.793Z,127.73
2017-09-27T13:35:20.749Z,133.13
2017-09-27T13:37:21.709Z,130.13
2017-09-27T13:39:22.688Z,119.07
2017-09-27T13:41:23.642Z,138.23
2017-09-27T13:43:24.594Z,118.60
2017-09-27T13:45:25.569Z,127.23
2017-09-27T13:47:26.546Z,136.83
2017-09-27T13:49:28.234Z,143.70
2017-09-27T13:51:29.185Z,134.97
2017-09-27T13:53:30.145Z,138.13
2017-09-27T13:55:31.110Z,144.40
2017-09-27T13:57:32.073Z,140.43
2017-09-27T13:59:33.018Z,157.93
2017-09-27T14:01:33.994Z,139.50
2017-09-27T14:03:35.693Z,151.00
2017-09-27T14:05:36.644Z,153.30
2017-09-27T14:07:37.597Z,157.47
2017-09-27T14:09:38.565Z,143.00
2017-09-27T14:11:39.537Z,144.70
2017-09-27T14:13:41.253Z,124.90
2017-09-27T14:15:42.213Z,143.03
2017-09-27T14:17:43.179Z,137.17
2017-09-27T14:19:44.122Z,148.43
2017-09-27T14:21:45.074Z,137.47
2017-09-27T14:23:46.778Z,132.73
2017-09-27T14:25:47.731Z,142.83
2017-09-27T14:27:48.690Z,119.10
2017-09-27T14:29:49.650Z,116.93
2017-09-27T14:31:50.638Z,136.77
2017-09-27T14:33:52.336Z,122.37
2017-09-27T14:35:53.300Z,127.07
2017-09-27T14:37:54.274Z,117.07
2017-09-27T14:39:55.222Z,125.87
2017-09-27T14:41:57.225Z,126.60
2017-09-27T14:43:58.185Z,121.90
2017-09-27T14:45:59.128Z,116.43
2017-09-27T14:48:00.097Z,113.63
2017-09-27T14:50:01.054Z,128.10
2017-09-27T14:52:02.011Z,112.87
2017-09-27T14:54:02.978Z,124.63
2017-09-27T14:56:04.674Z,117.57
2017-09-27T14:58:05.657Z,113.97
2017-09-27T15:00:06.602Z,110.97
2017-09-27T15:02:07.568Z,113.80
2017-09-27T15:04:09.273Z,113.83
2017-09-27T15:06:10.250Z,113.00
2017-09-27T15:08:11.270Z,121.30
2017-09-27T15:10:12.236Z,112.60
2017-09-27T15:12:13.188Z,112.37
2017-09-27T15:14:14.143Z,104.37
2017-09-27T15:16:15.109Z,114.80
2017-09-27T15:18:16.845Z,119.90
2017-09-27T15:20:17.821Z,103.33
2017-09-27T15:22:19.589Z,112.70
2017-09-27T15:24:21.451Z,112.40
2017-09-27T15:26:23.154Z,113.30
2017-09-27T15:28:24.109Z,118.93
2017-09-27T15:30:25.073Z,121.60
2017-09-27T15:32:26.032Z,127.13
2017-09-27T15:34:26.996Z,118.97
2017-09-27T15:36:27.949Z,128.00
2017-09-27T15:38:29.648Z,126.73
2017-09-27T15:40:30.609Z,127.10
2017-09-27T15:42:31.556Z,128.93
2017-09-27T15:44:32.520Z,134.07
2017-09-27T15:46:33.466Z,124.30
2017-09-27T15:48:34.439Z,142.57
2017-09-27T15:50:36.141Z,137.07
2017-09-27T15:52:37.097Z,144.00
2017-09-27T15:54:38.100Z,128.50
2017-09-27T15:56:39.796Z,142.77
2017-09-27T15:58:40.740Z,145.73
2017-09-27T16:00:41.789Z,150.13
2017-09-27T16:02:42.746Z,132.00
2017-09-27T16:04:43.717Z,144.90
2017-09-27T16:06:44.666Z,134.03
2017-09-27T16:08:45.624Z,137.27
2017-09-27T16:10:46.581Z,134.60
2017-09-27T16:12:48.279Z,147.83
2017-09-27T16:14:49.229Z,150.10
2017-09-27T16:16:50.197Z,152.02
2017-09-27T16:18:51.153Z,160.77
2017-09-27T16:20:52.114Z,151.00
2017-09-27T16:22:53.126Z,146.20
2017-09-27T16:24:54.105Z,145.87
2017-09-27T16:26:55.065Z,157.20
2017-09-27T16:28:56.757Z,153.67
2017-09-27T16:30:57.718Z,150.03
2017-09-27T16:32:58.664Z,151.70
2017-09-27T16:34:59.616Z,151.73
2017-09-27T16:37:00.731Z,150.90
2017-09-27T16:39:01.689Z,155.13
2017-09-27T16:41:02.642Z,163.12
2017-09-27T16:43:03.593Z,166.33
2017-09-27T16:45:04.542Z,155.00
2017-09-27T16:47:05.501Z,159.67
2017-09-27T16:49:06.460Z,150.37
2017-09-27T16:51:07.424Z,159.40
2017-09-27T16:53:08.372Z,165.80
2017-09-27T16:55:09.321Z,149.27
2017-09-27T16:57:10.278Z,154.43
2017-09-27T16:59:11.989Z,161.43
2017-09-27T17:01:12.945Z,162.40
2017-09-27T17:03:14.637Z,153.73
2017-09-27T17:05:15.585Z,154.77
2017-09-27T17:07:17.281Z,168.27
2017-09-27T17:09:18.232Z,153.13
2017-09-27T17:11:19.201Z,145.87
2017-09-27T17:13:20.149Z,154.37
2017-09-27T17:15:21.157Z,150.60
2017-09-27T17:17:22.124Z,153.20
2017-09-27T17:19:23.173Z,178.10
2017-09-27T17:21:24.130Z,173.30
2017-09-27T17:23:25.090Z,171.93
2017-09-27T17:25:26.126Z,161.33
2017-09-27T17:27:27.089Z,161.17
2017-09-27T17:29:28.045Z,161.33
2017-09-27T17:31:29.012Z,191.23
2017-09-27T17:33:30.722Z,174.00
2017-09-27T17:35:31.666Z,173.70
2017-09-27T17:37:32.632Z,169.13
2017-09-27T17:39:33.597Z,179.33
2017-09-27T17:41:34.549Z,176.07
2017-09-27T17:43:35.516Z,170.97
2017-09-27T17:45:36.470Z,169.40
2017-09-27T17:47:37.767Z,186.13
2017-09-27T17:49:38.742Z,163.23
2017-09-27T17:51:39.846Z,189.67
2017-09-27T17:53:40.806Z,186.73
2017-09-27T17:55:41.880Z,169.70
2017-09-27T17:57:42.858Z,183.40
2017-09-27T17:59:43.821Z,164.70
2017-09-27T18:01:44.782Z,191.20
2017-09-27T18:03:45.869Z,173.03
2017-09-27T18:08:21.460Z,192.90
2017-09-27T18:10:39.325Z,189.23
2017-09-27T18:12:46.512Z,186.03
2017-09-27T18:14:53.220Z,163.23
2017-09-27T18:17:00.449Z,169.87
2017-09-27T18:19:01.557Z,194.20
2017-09-27T18:21:02.673Z,184.93
2017-09-27T18:23:04.557Z,193.33
2017-09-27T18:25:05.747Z,179.27
2017-09-27T18:27:06.717Z,163.40
2017-09-27T18:29:07.738Z,174.33
2017-09-27T18:31:08.818Z,166.73
2017-09-27T18:33:09.788Z,163.07
2017-09-27T18:35:11.490Z,173.07
2017-09-27T18:37:12.462Z,191.57
2017-09-27T18:39:13.493Z,183.07
2017-09-27T18:41:14.447Z,188.63
2017-09-27T18:43:15.427Z,184.67
2017-09-27T18:45:17.158Z,191.70
2017-09-27T18:47:18.161Z,186.70
2017-09-27T18:49:19.157Z,187.17
2017-09-27T18:51:20.230Z,198.33
2017-09-27T18:53:21.939Z,190.47
2017-09-27T18:55:22.918Z,179.30
2017-09-27T18:57:23.893Z,172.73
2017-09-27T18:59:25.706Z,170.33
2017-09-27T19:01:34.736Z,176.20
2017-09-27T19:03:35.711Z,172.60
2017-09-27T19:05:36.712Z,223.67
2017-09-27T19:07:37.757Z,185.47
2017-09-27T19:09:38.717Z,181.43
2017-09-27T19:11:39.692Z,169.07
2017-09-27T19:13:40.638Z,176.13
2017-09-27T19:15:42.349Z,164.57
2017-09-27T19:17:44.069Z,173.10
2017-09-27T19:19:45.035Z,158.10
2017-09-27T19:21:45.986Z,179.73
2017-09-27T19:23:46.977Z,162.17
2017-09-27T19:25:47.933Z,162.07
2017-09-27T19:27:48.914Z,168.30
2017-09-27T19:29:49.877Z,168.10
2017-09-27T19:31:51.645Z,179.60
2017-09-27T19:33:53.333Z,172.40
2017-09-27T19:35:54.308Z,157.70
2017-09-27T19:37:55.293Z,214.63
2017-09-27T19:39:56.350Z,198.63
2017-09-27T19:41:58.074Z,201.50
2017-09-27T19:43:59.035Z,176.63
2017-09-27T19:45:59.997Z,185.13
2017-09-27T19:48:01.694Z,175.17
2017-09-27T19:50:02.753Z,181.80
2017-09-27T19:52:03.816Z,163.57
2017-09-27T19:54:04.792Z,189.10
2017-09-27T19:56:05.754Z,184.10
2017-09-27T19:58:06.717Z,186.60
2017-09-27T20:00:07.738Z,171.37
2017-09-27T20:02:09.686Z,170.18
2017-09-27T20:04:10.660Z,129.13
2017-09-27T20:06:11.726Z,144.83
2017-09-27T20:08:13.549Z,143.43
2017-09-27T20:10:14.509Z,141.90
2017-09-27T20:12:15.484Z,137.17
2017-09-27T20:14:16.441Z,138.63
2017-09-27T20:16:17.416Z,141.70
2017-09-27T20:18:18.369Z,148.10
2017-09-27T20:20:19.334Z,144.03
2017-09-27T20:22:20.422Z,147.30
2017-09-27T20:24:21.453Z,160.77
2017-09-27T20:26:23.188Z,172.93
2017-09-27T20:28:24.267Z,167.33
2017-09-27T20:30:25.978Z,157.10
2017-09-27T20:32:26.948Z,159.77
2017-09-27T20:34:27.921Z,168.60
2017-09-27T20:36:30.570Z,141.97
2017-09-27T20:38:31.605Z,136.47
2017-09-27T20:40:32.581Z,144.27
2017-09-27T20:42:33.657Z,136.87
2017-09-27T20:44:35.361Z,127.83
2017-09-27T20:46:36.408Z,144.63
2017-09-27T20:48:38.237Z,157.37
2017-09-27T20:50:39.947Z,530.90
2017-09-27T20:52:40.946Z,116.63
2017-09-27T20:54:42.711Z,97.23
2017-09-27T20:56:44.484Z,83.37
2017-09-27T20:58:45.470Z,91.53
2017-09-27T21:00:46.422Z,88.67
2017-09-27T21:02:48.229Z,114.97
2017-09-27T21:04:49.934Z,78.63
2017-09-27T21:06:50.890Z,75.77
2017-09-27T21:08:51.862Z,77.03
2017-09-27T21:10:52.828Z,77.60
2017-09-27T21:12:54.534Z,91.10
2017-09-27T21:14:56.326Z,107.47
2017-09-27T21:16:57.277Z,112.83
2017-09-27T21:18:58.327Z,83.30
2017-09-27T21:20:59.286Z,164.93
2017-09-27T21:23:00.254Z,83.30
2017-09-27T21:25:01.214Z,105.83
2017-09-27T21:27:02.171Z,73.90
2017-09-27T21:29:03.147Z,73.67
2017-09-27T21:31:04.106Z,97.10
2017-09-27T21:33:05.077Z,110.80
2017-09-27T21:35:07.005Z,100.93
2017-09-27T21:37:07.993Z,116.40
2017-09-27T21:39:08.968Z,126.37
2017-09-27T21:41:10.048Z,146.83
2017-09-27T21:43:11.024Z,147.37
2017-09-27T21:45:12.734Z,146.23
2017-09-27T21:47:13.697Z,131.63
2017-09-27T21:49:14.767Z,117.97
2017-09-27T21:51:15.777Z,85.80
2017-09-27T21:53:16.753Z,89.33
2017-09-27T21:55:17.710Z,230.90
2017-09-27T21:57:18.662Z,55.30
2017-09-27T21:59:20.368Z,58.90
2017-09-27T22:01:21.325Z,45.00
2017-09-27T22:03:29.247Z,69.90
2017-09-27T22:05:30.205Z,57.60
2017-09-27T22:07:31.164Z,84.03
2017-09-27T22:09:32.133Z,295.93
2017-09-27T22:11:33.093Z,68.83
2017-09-27T22:13:34.206Z,62.80
2017-09-27T22:15:35.163Z,72.17
2017-09-27T22:17:36.861Z,61.57
2017-09-27T22:19:37.912Z,66.33
2017-09-27T22:21:38.919Z,57.77
2017-09-27T22:23:40.645Z,68.80
2017-09-27T22:25:41.610Z,68.47
2017-09-27T22:27:42.654Z,75.03
2017-09-27T22:29:43.639Z,104.70
2017-09-27T22:31:44.598Z,108.37
2017-09-27T22:33:45.546Z,82.00
2017-09-27T22:35:46.520Z,60.07
2017-09-27T22:37:47.474Z,62.23
2017-09-27T22:39:48.441Z,66.80
2017-09-27T22:41:49.530Z,62.13
2017-09-27T22:43:50.512Z,76.37
2017-09-27T22:45:51.488Z,100.77
2017-09-27T22:47:52.432Z,95.97
2017-09-27T22:49:53.424Z,127.50
2017-09-27T22:51:54.401Z,133.23
2017-09-27T22:53:55.350Z,128.47
2017-09-27T22:55:56.336Z,135.90
2017-09-27T22:57:58.051Z,159.30
2017-09-27T22:59:59.030Z,139.40
2017-09-27T23:02:00.725Z,138.80
2017-09-27T23:04:01.679Z,146.67
2017-09-27T23:06:02.661Z,149.23
2017-09-27T23:08:03.623Z,174.60
2017-09-27T23:10:04.594Z,163.37
2017-09-27T23:12:06.317Z,189.60
2017-09-27T23:14:07.274Z,132.87
2017-09-27T23:16:08.239Z,147.63
2017-09-27T23:18:09.924Z,114.90
2017-09-27T23:20:10.894Z,125.53
2017-09-27T23:22:11.850Z,141.30
2017-09-27T23:24:13.550Z,108.53
2017-09-27T23:26:15.253Z,92.23
2017-09-27T23:28:16.204Z,109.47
2017-09-27T23:30:17.152Z,121.03
2017-09-27T23:32:18.118Z,101.87
2017-09-27T23:34:19.081Z,96.73
2017-09-27T23:36:20.068Z,99.57
2017-09-27T23:38:21.027Z,90.87
2017-09-27T23:40:21.989Z,97.20
2017-09-27T23:42:22.958Z,118.97
2017-09-27T23:44:23.933Z,233.93
2017-09-27T23:46:25.652Z,397.63
2017-09-27T23:48:26.609Z,410.53
2017-09-27T23:50:27.575Z,362.03
2017-09-27T23:52:28.532Z,352.97
2017-09-27T23:54:30.225Z,743.50
2017-09-27T23:56:31.189Z,551.03
2017-09-27T23:58:32.146Z,744.10
